sensor_id;sensor_type;location;lat;lon;timestamp;pressure;altitude;pressure_sealevel;temperature;humidity
63665;BME280;49820;33.966;73.390;2022-08-06T00:00:29;78483.16;;;16.17;100.00
63665;BME280;49820;33.966;73.390;2022-08-06T00:03:33;78493.75;;;16.21;100.00
63665;BME280;49820;33.966;73.390;2022-08-06T00:06:37;78470.16;;;16.21;100.00
63665;BME280;49820;33.966;73.390;2022-08-06T00:09:07;78474.41;;;16.31;100.00
63665;BME280;49820;33.966;73.390;2022-08-06T00:12:12;78495.59;;;16.54;100.00
63665;BME280;49820;33.966;73.390;2022-08-06T00:15:04;78492.69;;;16.58;100.00
63665;BME280;49820;33.966;73.390;2022-08-06T00:17:41;78436.13;;;16.14;100.00
63665;BME280;49820;33.966;73.390;2022-08-06T00:20:29;78496.06;;;16.58;100.00
63665;BME280;49820;33.966;73.390;2022-08-06T00:23:17;78498.31;;;16.68;100.00
63665;BME280;49820;33.966;73.390;2022-08-06T00:26:09;78491.59;;;16.67;100.00
63665;BME280;49820;33.966;73.390;2022-08-06T00:29:13;78494.09;;;16.57;100.00
63665;BME280;49820;33.966;73.390;2022-08-06T00:31:52;78482.50;;;16.46;100.00
63665;BME280;49820;33.966;73.390;2022-08-06T00:34:56;78497.00;;;16.53;100.00
63665;BME280;49820;33.966;73.390;2022-08-06T00:38:00;78480.69;;;16.55;100.00
63665;BME280;49820;33.966;73.390;2022-08-06T00:41:04;78492.78;;;16.56;100.00
63665;BME280;49820;33.966;73.390;2022-08-06T00:44:09;78465.56;;;16.32;100.00
63665;BME280;49820;33.966;73.390;2022-08-06T00:47:13;78505.63;;;16.55;100.00
63665;BME280;49820;33.966;73.390;2022-08-06T00:50:21;78516.16;;;16.61;100.00
63665;BME280;49820;33.966;73.390;2022-08-06T00:53:10;78514.28;;;16.58;100.00
63665;BME280;49820;33.966;73.390;2022-08-06T00:56:14;78522.84;;;16.62;100.00
63665;BME280;49820;33.966;73.390;2022-08-06T00:59:18;78512.13;;;16.60;100.00
63665;BME280;49820;33.966;73.390;2022-08-06T01:02:22;78519.97;;;16.66;100.00
63665;BME280;49820;33.966;73.390;2022-08-06T01:04:53;78513.09;;;16.69;100.00
63665;BME280;49820;33.966;73.390;2022-08-06T01:07:57;78503.84;;;16.79;100.00
63665;BME280;49820;33.966;73.390;2022-08-06T01:11:00;78521.69;;;17.01;100.00
63665;BME280;49820;33.966;73.390;2022-08-06T01:13:51;78512.03;;;17.19;100.00
63665;BME280;49820;33.966;73.390;2022-08-06T01:16:57;78525.63;;;17.32;100.00
63665;BME280;49820;33.966;73.390;2022-08-06T01:21:01;78524.22;;;17.33;100.00
63665;BME280;49820;33.966;73.390;2022-08-06T01:30:45;78526.22;;;17.47;100.00
63665;BME280;49820;33.966;73.390;2022-08-06T01:33:52;78517.75;;;17.40;100.00
63665;BME280;49820;33.966;73.390;2022-08-06T01:40:16;78532.44;;;17.58;100.00
63665;BME280;49820;33.966;73.390;2022-08-06T01:42:52;78533.53;;;17.63;100.00
63665;BME280;49820;33.966;73.390;2022-08-06T01:45:59;78514.81;;;17.59;100.00
63665;BME280;49820;33.966;73.390;2022-08-06T01:48:47;78524.22;;;17.87;100.00
63665;BME280;49820;33.966;73.390;2022-08-06T01:51:53;78533.16;;;18.24;100.00
63665;BME280;49820;33.966;73.390;2022-08-06T01:55:02;78511.31;;;18.41;100.00
63665;BME280;49820;33.966;73.390;2022-08-06T01:58:08;78515.47;;;18.65;100.00
63665;BME280;49820;33.966;73.390;2022-08-06T02:01:14;78529.97;;;18.85;100.00
63665;BME280;49820;33.966;73.390;2022-08-06T02:04:06;78474.88;;;18.40;100.00
63665;BME280;49820;33.966;73.390;2022-08-06T02:07:12;78536.78;;;18.84;100.00
63665;BME280;49820;33.966;73.390;2022-08-06T02:10:19;78525.56;;;18.79;100.00
63665;BME280;49820;33.966;73.390;2022-08-06T02:13:26;78550.50;;;19.56;100.00
63665;BME280;49820;33.966;73.390;2022-08-06T02:16:34;78544.84;;;19.60;100.00
63665;BME280;49820;33.966;73.390;2022-08-06T02:19:43;78537.94;;;19.50;100.00
63665;BME280;49820;33.966;73.390;2022-08-06T02:22:53;78510.03;;;19.16;100.00
63665;BME280;49820;33.966;73.390;2022-08-06T02:25:26;78538.59;;;19.25;100.00
63665;BME280;49820;33.966;73.390;2022-08-06T02:28:20;78533.09;;;19.15;100.00
63665;BME280;49820;33.966;73.390;2022-08-06T02:31:25;78542.63;;;19.14;100.00
63665;BME280;49820;33.966;73.390;2022-08-06T02:34:23;78546.41;;;19.06;100.00
63665;BME280;49820;33.966;73.390;2022-08-06T02:37:51;78546.22;;;19.10;100.00
63665;BME280;49820;33.966;73.390;2022-08-06T02:41:00;78540.31;;;19.43;100.00
63665;BME280;49820;33.966;73.390;2022-08-06T02:44:12;78523.06;;;19.62;100.00
63665;BME280;49820;33.966;73.390;2022-08-06T02:47:36;78537.72;;;19.90;100.00
63665;BME280;49820;33.966;73.390;2022-08-06T02:50:47;78534.91;;;21.41;100.00
63665;BME280;49820;33.966;73.390;2022-08-06T02:54:19;78546.00;;;21.92;100.00
63665;BME280;49820;33.966;73.390;2022-08-06T02:57:15;78541.75;;;22.16;100.00
63665;BME280;49820;33.966;73.390;2022-08-06T03:00:21;78553.63;;;21.89;100.00
63665;BME280;49820;33.966;73.390;2022-08-06T03:03:26;78549.19;;;21.73;100.00
63665;BME280;49820;33.966;73.390;2022-08-06T03:06:33;78545.84;;;21.83;100.00
63665;BME280;49820;33.966;73.390;2022-08-06T03:09:40;78552.38;;;23.03;100.00
63665;BME280;49820;33.966;73.390;2022-08-06T03:12:48;78545.34;;;23.17;100.00
63665;BME280;49820;33.966;73.390;2022-08-06T03:15:42;78541.38;;;22.95;100.00
63665;BME280;49820;33.966;73.390;2022-08-06T03:18:48;78553.47;;;22.87;100.00
63665;BME280;49820;33.966;73.390;2022-08-06T03:21:57;78552.16;;;22.97;100.00
63665;BME280;49820;33.966;73.390;2022-08-06T03:25:05;78551.44;;;23.17;100.00
63665;BME280;49820;33.966;73.390;2022-08-06T03:28:12;78555.28;;;22.91;100.00
63665;BME280;49820;33.966;73.390;2022-08-06T03:31:18;78545.22;;;23.79;100.00
63665;BME280;49820;33.966;73.390;2022-08-06T03:34:23;78557.16;;;23.13;100.00
63665;BME280;49820;33.966;73.390;2022-08-06T03:36:54;78541.88;;;23.08;100.00
63665;BME280;49820;33.966;73.390;2022-08-06T03:40:00;78564.44;;;23.17;100.00
63665;BME280;49820;33.966;73.390;2022-08-06T03:42:50;78565.47;;;23.11;100.00
63665;BME280;49820;33.966;73.390;2022-08-06T03:46:01;78566.97;;;22.78;100.00
63665;BME280;49820;33.966;73.390;2022-08-06T03:48:38;78572.31;;;22.38;97.71
63665;BME280;49820;33.966;73.390;2022-08-06T03:51:44;78566.13;;;21.52;100.00
63665;BME280;49820;33.966;73.390;2022-08-06T03:54:44;78571.78;;;21.27;100.00
63665;BME280;49820;33.966;73.390;2022-08-06T03:57:50;78552.13;;;21.03;100.00
63665;BME280;49820;33.966;73.390;2022-08-06T04:00:25;78570.00;;;21.11;100.00
63665;BME280;49820;33.966;73.390;2022-08-06T04:03:35;78569.84;;;21.02;100.00
63665;BME280;49820;33.966;73.390;2022-08-06T04:06:25;78560.31;;;20.80;100.00
63665;BME280;49820;33.966;73.390;2022-08-06T04:09:16;78561.25;;;20.87;100.00
63665;BME280;49820;33.966;73.390;2022-08-06T04:12:23;78567.78;;;21.37;100.00
63665;BME280;49820;33.966;73.390;2022-08-06T04:15:28;78564.88;;;22.90;100.00
63665;BME280;49820;33.966;73.390;2022-08-06T04:18:19;78575.88;;;23.09;100.00
63665;BME280;49820;33.966;73.390;2022-08-06T04:21:24;78574.03;;;23.16;100.00
63665;BME280;49820;33.966;73.390;2022-08-06T04:24:30;78563.03;;;22.97;100.00
63665;BME280;49820;33.966;73.390;2022-08-06T04:27:34;78578.63;;;22.98;100.00
63665;BME280;49820;33.966;73.390;2022-08-06T04:30:39;78540.66;;;22.64;100.00
63665;BME280;49820;33.966;73.390;2022-08-06T04:33:45;78569.69;;;22.78;100.00
63665;BME280;49820;33.966;73.390;2022-08-06T04:36:19;78575.44;;;22.53;100.00
63665;BME280;49820;33.966;73.390;2022-08-06T04:39:24;78574.53;;;22.03;100.00
63665;BME280;49820;33.966;73.390;2022-08-06T04:42:29;78576.84;;;22.31;100.00
63665;BME280;49820;33.966;73.390;2022-08-06T04:45:21;78586.53;;;21.96;100.00
63665;BME280;49820;33.966;73.390;2022-08-06T04:48:26;78582.63;;;21.72;100.00
63665;BME280;49820;33.966;73.390;2022-08-06T04:51:24;78573.09;;;21.39;100.00
63665;BME280;49820;33.966;73.390;2022-08-06T04:54:32;78589.13;;;21.32;100.00
63665;BME280;49820;33.966;73.390;2022-08-06T04:57:36;78573.78;;;21.16;100.00
63665;BME280;49820;33.966;73.390;2022-08-06T05:00:46;78566.28;;;21.16;100.00
63665;BME280;49820;33.966;73.390;2022-08-06T05:03:50;78575.97;;;21.47;100.00
63665;BME280;49820;33.966;73.390;2022-08-06T05:07:28;78586.19;;;22.02;100.00
63665;BME280;49820;33.966;73.390;2022-08-06T05:10:48;78577.09;;;21.95;100.00
63665;BME280;49820;33.966;73.390;2022-08-06T05:14:06;78580.41;;;21.74;100.00
63665;BME280;49820;33.966;73.390;2022-08-06T05:16:57;78586.06;;;22.04;100.00
63665;BME280;49820;33.966;73.390;2022-08-06T05:19:59;78577.06;;;21.84;100.00
63665;BME280;49820;33.966;73.390;2022-08-06T05:23:11;78577.94;;;21.59;100.00
63665;BME280;49820;33.966;73.390;2022-08-06T05:25:48;78577.16;;;21.61;100.00
63665;BME280;49820;33.966;73.390;2022-08-06T05:28:42;78582.13;;;21.90;100.00
63665;BME280;49820;33.966;73.390;2022-08-06T05:31:46;78581.84;;;21.84;100.00
63665;BME280;49820;33.966;73.390;2022-08-06T05:34:50;78585.88;;;21.85;100.00
63665;BME280;49820;33.966;73.390;2022-08-06T05:37:21;78572.59;;;22.44;100.00
63665;BME280;49820;33.966;73.390;2022-08-06T05:40:28;78551.69;;;23.24;100.00
63665;BME280;49820;33.966;73.390;2022-08-06T05:43:39;78553.66;;;24.62;100.00
63665;BME280;49820;33.966;73.390;2022-08-06T05:46:54;78546.34;;;24.97;90.24
63665;BME280;49820;33.966;73.390;2022-08-06T05:49:47;78541.06;;;24.76;100.00
63665;BME280;49820;33.966;73.390;2022-08-06T05:53:02;78544.25;;;24.51;100.00
63665;BME280;49820;33.966;73.390;2022-08-06T05:56:23;78545.00;;;24.21;100.00
63665;BME280;49820;33.966;73.390;2022-08-06T05:59:33;78539.16;;;23.68;96.90
63665;BME280;49820;33.966;73.390;2022-08-06T06:02:48;78539.59;;;23.62;100.00
63665;BME280;49820;33.966;73.390;2022-08-06T06:05:56;78534.34;;;23.68;100.00
63665;BME280;49820;33.966;73.390;2022-08-06T06:08:44;78523.44;;;23.38;98.67
63665;BME280;49820;33.966;73.390;2022-08-06T06:11:48;78528.34;;;23.76;100.00
63665;BME280;49820;33.966;73.390;2022-08-06T06:14:41;78524.41;;;25.44;88.59
63665;BME280;49820;33.966;73.390;2022-08-06T06:24:44;78513.88;;;24.74;88.99
63665;BME280;49820;33.966;73.390;2022-08-06T06:27:24;78506.81;;;24.11;96.82
63665;BME280;49820;33.966;73.390;2022-08-06T06:31:09;78511.41;;;24.04;100.00
63665;BME280;49820;33.966;73.390;2022-08-06T06:34:16;78514.31;;;23.52;95.94
63665;BME280;49820;33.966;73.390;2022-08-06T06:41:12;78513.66;;;22.81;100.00
63665;BME280;49820;33.966;73.390;2022-08-06T06:44:18;78509.72;;;23.00;100.00
63665;BME280;49820;33.966;73.390;2022-08-06T06:47:43;78504.97;;;23.19;100.00
63665;BME280;49820;33.966;73.390;2022-08-06T06:50:53;78507.78;;;25.01;100.00
63665;BME280;49820;33.966;73.390;2022-08-06T06:54:04;78493.91;;;24.39;90.15
63665;BME280;49820;33.966;73.390;2022-08-06T06:57:14;78503.00;;;23.97;100.00
63665;BME280;49820;33.966;73.390;2022-08-06T06:59:48;78504.44;;;25.91;94.03
63665;BME280;49820;33.966;73.390;2022-08-06T07:02:58;78504.34;;;25.20;95.37
63665;BME280;49820;33.966;73.390;2022-08-06T07:06:07;78486.06;;;24.99;100.00
63665;BME280;49820;33.966;73.390;2022-08-06T07:09:24;78483.03;;;24.48;100.00
63665;BME280;49820;33.966;73.390;2022-08-06T07:12:30;78495.13;;;24.12;100.00
63665;BME280;49820;33.966;73.390;2022-08-06T07:15:37;78490.78;;;23.57;100.00
63665;BME280;49820;33.966;73.390;2022-08-06T07:18:42;78488.53;;;23.41;100.00
63665;BME280;49820;33.966;73.390;2022-08-06T07:21:48;78478.25;;;23.41;100.00
63665;BME280;49820;33.966;73.390;2022-08-06T07:24:39;78484.56;;;24.36;98.01
63665;BME280;49820;33.966;73.390;2022-08-06T07:27:31;78469.53;;;25.01;90.43
63665;BME280;49820;33.966;73.390;2022-08-06T07:30:36;78487.25;;;25.11;92.59
63665;BME280;49820;33.966;73.390;2022-08-06T07:33:29;78480.72;;;24.42;98.23
63665;BME280;49820;33.966;73.390;2022-08-06T07:36:51;78481.09;;;24.74;100.00
63665;BME280;49820;33.966;73.390;2022-08-06T07:39:57;78478.09;;;24.31;100.00
63665;BME280;49820;33.966;73.390;2022-08-06T07:42:30;78456.31;;;24.01;100.00
63665;BME280;49820;33.966;73.390;2022-08-06T07:45:35;78465.47;;;23.78;100.00
63665;BME280;49820;33.966;73.390;2022-08-06T07:49:01;78470.97;;;25.00;100.00
63665;BME280;49820;33.966;73.390;2022-08-06T07:52:08;78455.47;;;27.16;80.79
63665;BME280;49820;33.966;73.390;2022-08-06T07:55:03;78441.25;;;27.40;81.01
63665;BME280;49820;33.966;73.390;2022-08-06T07:58:08;78442.66;;;26.54;76.33
63665;BME280;49820;33.966;73.390;2022-08-06T08:01:01;78444.13;;;25.57;78.61
63665;BME280;49820;33.966;73.390;2022-08-06T08:04:06;78443.06;;;24.89;88.16
63665;BME280;49820;33.966;73.390;2022-08-06T08:07:30;78444.75;;;24.95;91.16
63665;BME280;49820;33.966;73.390;2022-08-06T08:10:40;78436.91;;;25.53;90.09
63665;BME280;49820;33.966;73.390;2022-08-06T08:13:31;78412.31;;;25.08;100.00
63665;BME280;49820;33.966;73.390;2022-08-06T08:16:37;78430.72;;;26.23;89.17
63665;BME280;49820;33.966;73.390;2022-08-06T08:19:30;78431.53;;;26.22;94.46
63665;BME280;49820;33.966;73.390;2022-08-06T08:22:35;78423.94;;;25.88;88.81
63665;BME280;49820;33.966;73.390;2022-08-06T08:25:42;78419.44;;;25.31;98.89
63665;BME280;49820;33.966;73.390;2022-08-06T08:28:47;78410.19;;;24.36;100.00
63665;BME280;49820;33.966;73.390;2022-08-06T08:31:34;78421.38;;;23.84;100.00
63665;BME280;49820;33.966;73.390;2022-08-06T08:34:38;78421.00;;;24.46;100.00
63665;BME280;49820;33.966;73.390;2022-08-06T08:37:29;78408.28;;;24.43;99.61
63665;BME280;49820;33.966;73.390;2022-08-06T08:40:34;78395.22;;;24.99;100.00
63665;BME280;49820;33.966;73.390;2022-08-06T08:43:42;78409.47;;;25.19;100.00
63665;BME280;49820;33.966;73.390;2022-08-06T08:46:47;78405.47;;;24.53;100.00
63665;BME280;49820;33.966;73.390;2022-08-06T08:49:45;78417.38;;;23.83;100.00
63665;BME280;49820;33.966;73.390;2022-08-06T08:53:07;78426.53;;;23.31;100.00
63665;BME280;49820;33.966;73.390;2022-08-06T08:56:13;78414.44;;;23.08;100.00
63665;BME280;49820;33.966;73.390;2022-08-06T08:59:21;78419.06;;;22.91;100.00
63665;BME280;49820;33.966;73.390;2022-08-06T09:02:26;78402.41;;;22.35;100.00
63665;BME280;49820;33.966;73.390;2022-08-06T09:05:31;78402.31;;;22.56;100.00
63665;BME280;49820;33.966;73.390;2022-08-06T09:08:21;78408.22;;;22.39;100.00
63665;BME280;49820;33.966;73.390;2022-08-06T09:11:25;78387.88;;;21.87;100.00
63665;BME280;49820;33.966;73.390;2022-08-06T09:14:29;78414.66;;;21.93;100.00
63665;BME280;49820;33.966;73.390;2022-08-06T09:17:05;78412.72;;;21.81;100.00
63665;BME280;49820;33.966;73.390;2022-08-06T09:19:40;78391.41;;;21.32;100.00
63665;BME280;49820;33.966;73.390;2022-08-06T09:22:31;78410.28;;;21.35;100.00
63665;BME280;49820;33.966;73.390;2022-08-06T09:28:42;78398.38;;;21.72;100.00
63665;BME280;49820;33.966;73.390;2022-08-06T09:31:46;78365.38;;;21.14;100.00
63665;BME280;49820;33.966;73.390;2022-08-06T09:34:39;78393.75;;;21.28;100.00
63665;BME280;49820;33.966;73.390;2022-08-06T09:37:46;78388.16;;;21.19;100.00
63665;BME280;49820;33.966;73.390;2022-08-06T09:40:40;78382.34;;;21.47;100.00
63665;BME280;49820;33.966;73.390;2022-08-06T09:43:25;78369.28;;;21.17;100.00
63665;BME280;49820;33.966;73.390;2022-08-06T09:46:42;78391.66;;;21.07;100.00
63665;BME280;49820;33.966;73.390;2022-08-06T09:49:47;78405.09;;;20.99;100.00
63665;BME280;49820;33.966;73.390;2022-08-06T09:52:28;78402.38;;;20.99;100.00
63665;BME280;49820;33.966;73.390;2022-08-06T09:55:32;78386.41;;;20.71;100.00
63665;BME280;49820;33.966;73.390;2022-08-06T09:58:37;78388.75;;;20.67;100.00
63665;BME280;49820;33.966;73.390;2022-08-06T10:01:44;78375.53;;;20.61;100.00
63665;BME280;49820;33.966;73.390;2022-08-06T10:04:49;78345.78;;;20.48;100.00
63665;BME280;49820;33.966;73.390;2022-08-06T10:07:31;78369.97;;;20.63;100.00
63665;BME280;49820;33.966;73.390;2022-08-06T10:10:50;78351.00;;;20.18;100.00
63665;BME280;49820;33.966;73.390;2022-08-06T10:13:26;78362.03;;;20.37;100.00
63665;BME280;49820;33.966;73.390;2022-08-06T10:16:31;78352.66;;;20.13;100.00
63665;BME280;49820;33.966;73.390;2022-08-06T10:19:19;78331.94;;;19.86;100.00
63665;BME280;49820;33.966;73.390;2022-08-06T10:22:08;78360.78;;;20.13;100.00
63665;BME280;49820;33.966;73.390;2022-08-06T10:25:13;78344.47;;;19.92;100.00
63665;BME280;49820;33.966;73.390;2022-08-06T10:27:56;78332.22;;;20.03;100.00
63665;BME280;49820;33.966;73.390;2022-08-06T10:31:04;78348.28;;;20.18;100.00
63665;BME280;49820;33.966;73.390;2022-08-06T10:34:11;78363.28;;;20.17;100.00
63665;BME280;49820;33.966;73.390;2022-08-06T10:37:17;78347.59;;;20.07;100.00
63665;BME280;49820;33.966;73.390;2022-08-06T10:40:22;78351.16;;;20.27;100.00
63665;BME280;49820;33.966;73.390;2022-08-06T10:43:08;78337.13;;;20.35;100.00
63665;BME280;49820;33.966;73.390;2022-08-06T10:46:13;78323.41;;;20.37;100.00
63665;BME280;49820;33.966;73.390;2022-08-06T10:49:23;78342.81;;;20.52;100.00
63665;BME280;49820;33.966;73.390;2022-08-06T10:52:36;78347.09;;;20.60;100.00
63665;BME280;49820;33.966;73.390;2022-08-06T10:55:40;78347.31;;;20.34;100.00
63665;BME280;49820;33.966;73.390;2022-08-06T10:58:11;78323.50;;;20.24;100.00
63665;BME280;49820;33.966;73.390;2022-08-06T11:01:27;78324.16;;;20.25;100.00
63665;BME280;49820;33.966;73.390;2022-08-06T11:08:36;78323.59;;;20.11;100.00
63665;BME280;49820;33.966;73.390;2022-08-06T11:15:00;78335.28;;;20.31;100.00
63665;BME280;49820;33.966;73.390;2022-08-06T11:18:04;78326.91;;;20.35;100.00
63665;BME280;49820;33.966;73.390;2022-08-06T11:21:42;78313.53;;;20.20;100.00
63665;BME280;49820;33.966;73.390;2022-08-06T11:24:50;78315.34;;;20.13;100.00
63665;BME280;49820;33.966;73.390;2022-08-06T11:27:53;78307.03;;;20.05;100.00
63665;BME280;49820;33.966;73.390;2022-08-06T11:30:54;78308.69;;;19.89;100.00
63665;BME280;49820;33.966;73.390;2022-08-06T11:34:00;78308.03;;;19.89;100.00
63665;BME280;49820;33.966;73.390;2022-08-06T11:36:43;78316.28;;;19.87;100.00
63665;BME280;49820;33.966;73.390;2022-08-06T11:40:05;78315.16;;;19.94;100.00
63665;BME280;49820;33.966;73.390;2022-08-06T11:43:09;78312.69;;;19.90;100.00
63665;BME280;49820;33.966;73.390;2022-08-06T11:49:47;78303.59;;;19.72;100.00
63665;BME280;49820;33.966;73.390;2022-08-06T11:55:25;78294.63;;;19.53;100.00
63665;BME280;49820;33.966;73.390;2022-08-06T11:58:29;78276.13;;;19.44;100.00
63665;BME280;49820;33.966;73.390;2022-08-06T12:01:46;78278.88;;;19.55;100.00
63665;BME280;49820;33.966;73.390;2022-08-06T12:07:32;78262.91;;;19.38;100.00
63665;BME280;49820;33.966;73.390;2022-08-06T12:10:36;78260.94;;;19.26;100.00
63665;BME280;49820;33.966;73.390;2022-08-06T12:13:38;78266.25;;;19.28;100.00
63665;BME280;49820;33.966;73.390;2022-08-06T12:16:42;78259.91;;;19.21;100.00
63665;BME280;49820;33.966;73.390;2022-08-06T12:19:52;78270.88;;;19.30;100.00
63665;BME280;49820;33.966;73.390;2022-08-06T12:22:57;78249.94;;;19.18;100.00
63665;BME280;49820;33.966;73.390;2022-08-06T12:25:47;78260.41;;;19.24;100.00
63665;BME280;49820;33.966;73.390;2022-08-06T12:28:35;78249.56;;;19.13;100.00
63665;BME280;49820;33.966;73.390;2022-08-06T12:31:39;78254.31;;;19.13;100.00
63665;BME280;49820;33.966;73.390;2022-08-06T12:34:43;78247.19;;;19.07;100.00
63665;BME280;49820;33.966;73.390;2022-08-06T12:37:47;78254.00;;;19.06;100.00
63665;BME280;49820;33.966;73.390;2022-08-06T12:41:05;78242.91;;;18.99;100.00
63665;BME280;49820;33.966;73.390;2022-08-06T12:43:56;78238.78;;;19.00;100.00
63665;BME280;49820;33.966;73.390;2022-08-06T12:47:12;78249.59;;;19.00;100.00
63665;BME280;49820;33.966;73.390;2022-08-06T12:50:00;78245.84;;;18.95;100.00
63665;BME280;49820;33.966;73.390;2022-08-06T12:52:31;78222.31;;;18.81;100.00
63665;BME280;49820;33.966;73.390;2022-08-06T12:55:19;78226.19;;;18.84;100.00
63665;BME280;49820;33.966;73.390;2022-08-06T12:58:32;78234.88;;;18.97;100.00
63665;BME280;49820;33.966;73.390;2022-08-06T13:01:18;78238.56;;;19.04;100.00
63665;BME280;49820;33.966;73.390;2022-08-06T13:04:23;78231.56;;;18.97;100.00
63665;BME280;49820;33.966;73.390;2022-08-06T13:07:30;78224.84;;;18.96;100.00
63665;BME280;49820;33.966;73.390;2022-08-06T13:10:35;78226.16;;;18.97;100.00
63665;BME280;49820;33.966;73.390;2022-08-06T13:13:50;78218.91;;;18.93;100.00
63665;BME280;49820;33.966;73.390;2022-08-06T13:16:57;78207.19;;;18.74;100.00
63665;BME280;49820;33.966;73.390;2022-08-06T13:20:18;78225.97;;;18.88;100.00
63665;BME280;49820;33.966;73.390;2022-08-06T13:23:35;78207.84;;;18.74;100.00
63665;BME280;49820;33.966;73.390;2022-08-06T13:26:51;78217.38;;;18.73;100.00
63665;BME280;49820;33.966;73.390;2022-08-06T13:29:59;78223.59;;;18.82;100.00
63665;BME280;49820;33.966;73.390;2022-08-06T13:33:23;78212.13;;;18.58;100.00
63665;BME280;49820;33.966;73.390;2022-08-06T13:36:14;78204.44;;;18.63;100.00
63665;BME280;49820;33.966;73.390;2022-08-06T13:39:25;78220.53;;;18.65;100.00
63665;BME280;49820;33.966;73.390;2022-08-06T13:42:29;78212.13;;;18.58;100.00
63665;BME280;49820;33.966;73.390;2022-08-06T13:45:34;78199.69;;;18.51;100.00
63665;BME280;49820;33.966;73.390;2022-08-06T13:48:49;78219.38;;;18.62;100.00
63665;BME280;49820;33.966;73.390;2022-08-06T13:51:53;78206.19;;;18.56;100.00
63665;BME280;49820;33.966;73.390;2022-08-06T13:54:57;78207.53;;;18.44;100.00
63665;BME280;49820;33.966;73.390;2022-08-06T13:58:01;78219.06;;;18.55;100.00
63665;BME280;49820;33.966;73.390;2022-08-06T14:01:05;78221.44;;;18.49;100.00
63665;BME280;49820;33.966;73.390;2022-08-06T14:03:52;78212.28;;;18.44;100.00
63665;BME280;49820;33.966;73.390;2022-08-06T14:06:57;78219.19;;;18.53;100.00
63665;BME280;49820;33.966;73.390;2022-08-06T14:09:45;78198.19;;;18.30;100.00
63665;BME280;49820;33.966;73.390;2022-08-06T14:12:49;78217.16;;;18.41;100.00
63665;BME280;49820;33.966;73.390;2022-08-06T14:15:53;78217.41;;;18.37;100.00
63665;BME280;49820;33.966;73.390;2022-08-06T14:18:45;78208.63;;;18.37;100.00
63665;BME280;49820;33.966;73.390;2022-08-06T14:21:34;78216.34;;;18.32;100.00
63665;BME280;49820;33.966;73.390;2022-08-06T14:24:38;78214.28;;;18.33;100.00
63665;BME280;49820;33.966;73.390;2022-08-06T14:27:39;78218.06;;;18.38;100.00
63665;BME280;49820;33.966;73.390;2022-08-06T14:30:43;78220.66;;;18.40;100.00
63665;BME280;49820;33.966;73.390;2022-08-06T14:33:37;78222.28;;;18.35;100.00
63665;BME280;49820;33.966;73.390;2022-08-06T14:36:42;78204.91;;;18.19;100.00
63665;BME280;49820;33.966;73.390;2022-08-06T14:39:12;78208.28;;;18.19;100.00
63665;BME280;49820;33.966;73.390;2022-08-06T14:42:16;78214.44;;;18.18;100.00
63665;BME280;49820;33.966;73.390;2022-08-06T14:45:21;78229.44;;;18.27;100.00
63665;BME280;49820;33.966;73.390;2022-08-06T14:48:25;78228.59;;;18.18;100.00
63665;BME280;49820;33.966;73.390;2022-08-06T14:51:30;78236.19;;;18.16;100.00
63665;BME280;49820;33.966;73.390;2022-08-06T14:54:35;78237.06;;;18.12;100.00
63665;BME280;49820;33.966;73.390;2022-08-06T14:57:27;78240.94;;;18.15;100.00
63665;BME280;49820;33.966;73.390;2022-08-06T15:00:31;78226.06;;;18.04;100.00
63665;BME280;49820;33.966;73.390;2022-08-06T15:03:39;78233.81;;;18.10;100.00
63665;BME280;49820;33.966;73.390;2022-08-06T15:06:43;78229.34;;;18.17;100.00
63665;BME280;49820;33.966;73.390;2022-08-06T15:09:24;78238.25;;;18.15;100.00
63665;BME280;49820;33.966;73.390;2022-08-06T15:12:28;78230.47;;;18.09;100.00
63665;BME280;49820;33.966;73.390;2022-08-06T15:15:27;78235.66;;;18.13;100.00
63665;BME280;49820;33.966;73.390;2022-08-06T15:18:31;78220.34;;;17.97;100.00
63665;BME280;49820;33.966;73.390;2022-08-06T15:21:35;78239.47;;;18.06;100.00
63665;BME280;49820;33.966;73.390;2022-08-06T15:24:39;78238.38;;;18.01;100.00
63665;BME280;49820;33.966;73.390;2022-08-06T15:27:44;78227.16;;;17.96;100.00
63665;BME280;49820;33.966;73.390;2022-08-06T15:30:48;78240.44;;;18.00;100.00
63665;BME280;49820;33.966;73.390;2022-08-06T15:33:25;78222.19;;;17.88;100.00
63665;BME280;49820;33.966;73.390;2022-08-06T15:36:20;78235.91;;;17.97;100.00
63665;BME280;49820;33.966;73.390;2022-08-06T15:39:24;78245.53;;;17.93;100.00
63665;BME280;49820;33.966;73.390;2022-08-06T15:42:31;78259.78;;;17.92;100.00
63665;BME280;49820;33.966;73.390;2022-08-06T15:45:35;78258.72;;;17.87;100.00
63665;BME280;49820;33.966;73.390;2022-08-06T15:52:38;78268.69;;;17.90;100.00
63665;BME280;49820;33.966;73.390;2022-08-06T15:56:00;78263.81;;;17.80;100.00
63665;BME280;49820;33.966;73.390;2022-08-06T15:58:49;78272.88;;;17.87;100.00
63665;BME280;49820;33.966;73.390;2022-08-06T16:01:40;78286.81;;;17.92;100.00
63665;BME280;49820;33.966;73.390;2022-08-06T16:04:44;78284.34;;;17.88;100.00
63665;BME280;49820;33.966;73.390;2022-08-06T16:07:14;78288.78;;;17.81;100.00
63665;BME280;49820;33.966;73.390;2022-08-06T16:10:18;78290.59;;;17.84;100.00
63665;BME280;49820;33.966;73.390;2022-08-06T16:13:26;78289.97;;;17.84;100.00
63665;BME280;49820;33.966;73.390;2022-08-06T16:16:14;78283.28;;;17.83;100.00
63665;BME280;49820;33.966;73.390;2022-08-06T16:19:05;78288.34;;;17.76;100.00
63665;BME280;49820;33.966;73.390;2022-08-06T16:22:06;78279.94;;;17.70;100.00